Terminal Aerodrome Forecast
Issued by NWS

Home | Current Version | Previous Version | Text Only | Print | Product List | Glossary On
Versions: 1 2 3 4 5 6 7 8 9 10 11 12 13 14 15
000
FTUS45 KABQ 292008 AAA
TAFSAF
TAF AMD
KSAF 292008Z 2920/3018 12011KT P6SM VCTS BKN080CB
      TEMPO 2921/3001 VRB15G27KT 4SM TSRA OVC040CB
     FM300200 10008KT P6SM VCSH OVC030
     FM300600 05098KT 3SM BR OVC025
     FM301100 11007KT P6SM OVC030=

USA.gov is the U.S. government's official web portal to all federal, state and local government web resources and services.